sensor_id;sensor_type;location;lat;lon;timestamp;P1;durP1;ratioP1;P2;durP2;ratioP2
76423;SDS011;65257;52.104;4.268;2024-02-16T00:00:34;5.13;;;3.55;;
76423;SDS011;65257;52.104;4.268;2024-02-16T00:02:59;6.38;;;3.17;;
76423;SDS011;65257;52.104;4.268;2024-02-16T00:05:24;5.85;;;3.22;;
76423;SDS011;65257;52.104;4.268;2024-02-16T00:07:50;5.50;;;3.30;;
76423;SDS011;65257;52.104;4.268;2024-02-16T00:10:16;6.70;;;3.88;;
76423;SDS011;65257;52.104;4.268;2024-02-16T00:12:45;6.63;;;3.28;;
76423;SDS011;65257;52.104;4.268;2024-02-16T00:15:13;4.63;;;3.30;;
76423;SDS011;65257;52.104;4.268;2024-02-16T00:17:38;5.75;;;3.38;;
76423;SDS011;65257;52.104;4.268;2024-02-16T00:20:04;7.00;;;3.75;;
76423;SDS011;65257;52.104;4.268;2024-02-16T00:22:32;5.75;;;4.03;;
76423;SDS011;65257;52.104;4.268;2024-02-16T00:24:58;5.55;;;3.05;;
76423;SDS011;65257;52.104;4.268;2024-02-16T00:27:27;8.70;;;3.75;;
76423;SDS011;65257;52.104;4.268;2024-02-16T00:29:52;7.22;;;3.78;;
76423;SDS011;65257;52.104;4.268;2024-02-16T00:32:19;6.43;;;3.78;;
76423;SDS011;65257;52.104;4.268;2024-02-16T00:34:44;8.32;;;3.97;;
76423;SDS011;65257;52.104;4.268;2024-02-16T00:37:13;7.95;;;3.50;;
76423;SDS011;65257;52.104;4.268;2024-02-16T00:39:41;6.55;;;3.75;;
76423;SDS011;65257;52.104;4.268;2024-02-16T00:42:07;6.40;;;3.40;;
76423;SDS011;65257;52.104;4.268;2024-02-16T00:44:33;7.72;;;3.65;;
76423;SDS011;65257;52.104;4.268;2024-02-16T00:46:58;7.55;;;3.65;;
76423;SDS011;65257;52.104;4.268;2024-02-16T00:49:26;6.97;;;3.20;;
76423;SDS011;65257;52.104;4.268;2024-02-16T00:51:55;5.90;;;3.38;;
76423;SDS011;65257;52.104;4.268;2024-02-16T00:54:20;7.72;;;4.35;;
76423;SDS011;65257;52.104;4.268;2024-02-16T00:56:46;7.10;;;4.32;;
76423;SDS011;65257;52.104;4.268;2024-02-16T00:59:12;5.28;;;2.90;;
76423;SDS011;65257;52.104;4.268;2024-02-16T01:01:37;4.85;;;3.08;;
76423;SDS011;65257;52.104;4.268;2024-02-16T01:04:03;5.32;;;3.60;;
76423;SDS011;65257;52.104;4.268;2024-02-16T01:06:29;10.32;;;3.72;;
76423;SDS011;65257;52.104;4.268;2024-02-16T01:08:54;5.88;;;3.75;;
76423;SDS011;65257;52.104;4.268;2024-02-16T01:11:21;7.32;;;4.25;;
76423;SDS011;65257;52.104;4.268;2024-02-16T01:13:50;5.72;;;3.55;;
76423;SDS011;65257;52.104;4.268;2024-02-16T01:16:16;6.18;;;3.00;;
76423;SDS011;65257;52.104;4.268;2024-02-16T01:18:45;6.72;;;3.58;;
76423;SDS011;65257;52.104;4.268;2024-02-16T01:21:10;7.80;;;3.90;;
76423;SDS011;65257;52.104;4.268;2024-02-16T01:23:39;9.98;;;3.97;;
76423;SDS011;65257;52.104;4.268;2024-02-16T01:26:09;6.30;;;4.00;;
76423;SDS011;65257;52.104;4.268;2024-02-16T01:28:36;5.55;;;3.63;;
76423;SDS011;65257;52.104;4.268;2024-02-16T01:31:02;5.63;;;3.70;;
76423;SDS011;65257;52.104;4.268;2024-02-16T01:33:30;5.90;;;3.65;;
76423;SDS011;65257;52.104;4.268;2024-02-16T01:36:02;5.05;;;3.40;;
76423;SDS011;65257;52.104;4.268;2024-02-16T01:38:31;7.68;;;4.22;;
76423;SDS011;65257;52.104;4.268;2024-02-16T01:40:58;7.45;;;4.38;;
76423;SDS011;65257;52.104;4.268;2024-02-16T01:43:25;6.32;;;4.00;;
76423;SDS011;65257;52.104;4.268;2024-02-16T01:45:50;6.63;;;3.97;;
76423;SDS011;65257;52.104;4.268;2024-02-16T01:48:16;10.10;;;4.88;;
76423;SDS011;65257;52.104;4.268;2024-02-16T01:50:45;12.52;;;4.80;;
76423;SDS011;65257;52.104;4.268;2024-02-16T01:53:14;8.80;;;4.90;;
76423;SDS011;65257;52.104;4.268;2024-02-16T01:55:44;11.52;;;4.90;;
76423;SDS011;65257;52.104;4.268;2024-02-16T01:58:13;9.18;;;5.35;;
76423;SDS011;65257;52.104;4.268;2024-02-16T02:00:39;7.85;;;4.45;;
76423;SDS011;65257;52.104;4.268;2024-02-16T02:03:06;11.25;;;5.25;;
76423;SDS011;65257;52.104;4.268;2024-02-16T02:05:44;7.85;;;4.20;;
76423;SDS011;65257;52.104;4.268;2024-02-16T02:08:13;11.30;;;5.22;;
76423;SDS011;65257;52.104;4.268;2024-02-16T02:10:39;8.23;;;4.13;;
76423;SDS011;65257;52.104;4.268;2024-02-16T02:13:13;10.23;;;5.03;;
76423;SDS011;65257;52.104;4.268;2024-02-16T02:15:40;13.27;;;5.57;;
76423;SDS011;65257;52.104;4.268;2024-02-16T02:18:05;10.45;;;5.50;;
76423;SDS011;65257;52.104;4.268;2024-02-16T02:20:31;10.25;;;5.70;;
76423;SDS011;65257;52.104;4.268;2024-02-16T02:22:57;11.88;;;4.47;;
76423;SDS011;65257;52.104;4.268;2024-02-16T02:25:22;15.55;;;5.10;;
76423;SDS011;65257;52.104;4.268;2024-02-16T02:27:47;5.57;;;3.63;;
76423;SDS011;65257;52.104;4.268;2024-02-16T02:30:13;8.63;;;4.75;;
76423;SDS011;65257;52.104;4.268;2024-02-16T02:32:41;10.88;;;5.03;;
76423;SDS011;65257;52.104;4.268;2024-02-16T02:35:07;10.98;;;4.25;;
76423;SDS011;65257;52.104;4.268;2024-02-16T02:37:36;5.70;;;3.42;;
76423;SDS011;65257;52.104;4.268;2024-02-16T02:40:04;6.90;;;4.28;;
76423;SDS011;65257;52.104;4.268;2024-02-16T02:42:35;7.65;;;3.97;;
76423;SDS011;65257;52.104;4.268;2024-02-16T02:45:09;7.53;;;4.30;;
76423;SDS011;65257;52.104;4.268;2024-02-16T02:47:36;7.55;;;3.92;;
76423;SDS011;65257;52.104;4.268;2024-02-16T02:50:04;10.32;;;4.28;;
76423;SDS011;65257;52.104;4.268;2024-02-16T02:52:32;9.07;;;4.85;;
76423;SDS011;65257;52.104;4.268;2024-02-16T02:55:01;6.30;;;4.45;;
76423;SDS011;65257;52.104;4.268;2024-02-16T02:57:26;6.90;;;4.07;;
76423;SDS011;65257;52.104;4.268;2024-02-16T02:59:52;5.88;;;3.50;;
76423;SDS011;65257;52.104;4.268;2024-02-16T03:02:17;7.03;;;4.50;;
76423;SDS011;65257;52.104;4.268;2024-02-16T03:04:42;7.60;;;4.32;;
76423;SDS011;65257;52.104;4.268;2024-02-16T03:07:14;6.93;;;3.88;;
76423;SDS011;65257;52.104;4.268;2024-02-16T03:09:40;7.75;;;4.22;;
76423;SDS011;65257;52.104;4.268;2024-02-16T03:12:07;8.20;;;3.78;;
76423;SDS011;65257;52.104;4.268;2024-02-16T03:14:33;8.70;;;4.30;;
76423;SDS011;65257;52.104;4.268;2024-02-16T03:16:59;7.47;;;3.47;;
76423;SDS011;65257;52.104;4.268;2024-02-16T03:19:24;8.65;;;4.72;;
76423;SDS011;65257;52.104;4.268;2024-02-16T03:21:52;7.90;;;4.28;;
76423;SDS011;65257;52.104;4.268;2024-02-16T03:24:17;7.53;;;3.90;;
76423;SDS011;65257;52.104;4.268;2024-02-16T03:26:43;6.20;;;3.67;;
76423;SDS011;65257;52.104;4.268;2024-02-16T03:29:09;5.63;;;3.50;;
76423;SDS011;65257;52.104;4.268;2024-02-16T03:31:40;6.32;;;3.40;;
76423;SDS011;65257;52.104;4.268;2024-02-16T03:34:05;6.93;;;4.15;;
76423;SDS011;65257;52.104;4.268;2024-02-16T03:36:31;7.35;;;3.53;;
76423;SDS011;65257;52.104;4.268;2024-02-16T03:38:56;6.45;;;3.88;;
76423;SDS011;65257;52.104;4.268;2024-02-16T03:41:22;8.77;;;3.97;;
76423;SDS011;65257;52.104;4.268;2024-02-16T03:43:48;6.53;;;3.63;;
76423;SDS011;65257;52.104;4.268;2024-02-16T03:46:15;8.93;;;4.45;;
76423;SDS011;65257;52.104;4.268;2024-02-16T03:48:41;6.25;;;3.75;;
76423;SDS011;65257;52.104;4.268;2024-02-16T03:51:06;5.57;;;3.60;;
76423;SDS011;65257;52.104;4.268;2024-02-16T03:53:34;8.60;;;4.70;;
76423;SDS011;65257;52.104;4.268;2024-02-16T03:56:00;8.05;;;4.05;;
76423;SDS011;65257;52.104;4.268;2024-02-16T03:58:26;6.85;;;3.70;;
76423;SDS011;65257;52.104;4.268;2024-02-16T04:00:51;8.30;;;4.72;;
76423;SDS011;65257;52.104;4.268;2024-02-16T04:03:18;7.05;;;4.05;;
76423;SDS011;65257;52.104;4.268;2024-02-16T04:05:45;6.38;;;4.22;;
76423;SDS011;65257;52.104;4.268;2024-02-16T04:08:11;7.90;;;4.45;;
76423;SDS011;65257;52.104;4.268;2024-02-16T04:10:40;5.57;;;3.35;;
76423;SDS011;65257;52.104;4.268;2024-02-16T04:13:05;8.60;;;4.30;;
76423;SDS011;65257;52.104;4.268;2024-02-16T04:15:31;7.43;;;4.20;;
76423;SDS011;65257;52.104;4.268;2024-02-16T04:17:59;6.32;;;3.90;;
76423;SDS011;65257;52.104;4.268;2024-02-16T04:20:25;7.07;;;4.47;;
76423;SDS011;65257;52.104;4.268;2024-02-16T04:22:51;4.70;;;3.28;;
76423;SDS011;65257;52.104;4.268;2024-02-16T04:25:23;4.90;;;3.35;;
76423;SDS011;65257;52.104;4.268;2024-02-16T04:27:51;5.97;;;3.70;;
76423;SDS011;65257;52.104;4.268;2024-02-16T04:30:17;6.82;;;3.72;;
76423;SDS011;65257;52.104;4.268;2024-02-16T04:32:45;8.07;;;3.90;;
76423;SDS011;65257;52.104;4.268;2024-02-16T04:35:21;5.20;;;3.40;;
76423;SDS011;65257;52.104;4.268;2024-02-16T04:37:47;8.90;;;3.40;;
76423;SDS011;65257;52.104;4.268;2024-02-16T04:40:13;6.00;;;3.47;;
76423;SDS011;65257;52.104;4.268;2024-02-16T04:42:38;5.32;;;3.53;;
76423;SDS011;65257;52.104;4.268;2024-02-16T04:45:05;6.68;;;3.60;;
76423;SDS011;65257;52.104;4.268;2024-02-16T04:47:35;6.68;;;4.10;;
76423;SDS011;65257;52.104;4.268;2024-02-16T04:50:04;5.57;;;3.35;;
76423;SDS011;65257;52.104;4.268;2024-02-16T04:52:30;6.97;;;4.43;;
76423;SDS011;65257;52.104;4.268;2024-02-16T04:54:56;7.25;;;3.65;;
76423;SDS011;65257;52.104;4.268;2024-02-16T04:57:21;9.13;;;4.80;;
76423;SDS011;65257;52.104;4.268;2024-02-16T04:59:47;5.80;;;3.30;;
76423;SDS011;65257;52.104;4.268;2024-02-16T05:02:12;7.40;;;4.30;;
76423;SDS011;65257;52.104;4.268;2024-02-16T05:04:41;7.93;;;4.75;;
76423;SDS011;65257;52.104;4.268;2024-02-16T05:07:06;10.35;;;4.32;;
76423;SDS011;65257;52.104;4.268;2024-02-16T05:09:32;8.60;;;4.30;;
76423;SDS011;65257;52.104;4.268;2024-02-16T05:11:58;8.27;;;4.30;;
76423;SDS011;65257;52.104;4.268;2024-02-16T05:14:25;9.02;;;4.57;;
76423;SDS011;65257;52.104;4.268;2024-02-16T05:16:50;6.90;;;4.32;;
76423;SDS011;65257;52.104;4.268;2024-02-16T05:19:16;8.48;;;4.28;;
76423;SDS011;65257;52.104;4.268;2024-02-16T05:21:41;7.43;;;4.20;;
76423;SDS011;65257;52.104;4.268;2024-02-16T05:24:07;7.93;;;4.55;;
76423;SDS011;65257;52.104;4.268;2024-02-16T05:26:32;7.72;;;4.53;;
76423;SDS011;65257;52.104;4.268;2024-02-16T05:28:59;7.22;;;4.18;;
76423;SDS011;65257;52.104;4.268;2024-02-16T05:31:25;8.50;;;3.85;;
76423;SDS011;65257;52.104;4.268;2024-02-16T05:33:51;7.50;;;4.13;;
76423;SDS011;65257;52.104;4.268;2024-02-16T05:36:17;8.25;;;4.35;;
76423;SDS011;65257;52.104;4.268;2024-02-16T05:38:52;9.85;;;5.22;;
76423;SDS011;65257;52.104;4.268;2024-02-16T05:41:20;8.55;;;4.82;;
76423;SDS011;65257;52.104;4.268;2024-02-16T05:43:46;8.73;;;5.05;;
76423;SDS011;65257;52.104;4.268;2024-02-16T05:46:14;11.07;;;5.43;;
76423;SDS011;65257;52.104;4.268;2024-02-16T05:48:43;6.47;;;4.20;;
76423;SDS011;65257;52.104;4.268;2024-02-16T05:51:10;7.00;;;4.45;;
76423;SDS011;65257;52.104;4.268;2024-02-16T05:53:43;8.07;;;4.38;;
76423;SDS011;65257;52.104;4.268;2024-02-16T05:56:13;6.53;;;4.05;;
76423;SDS011;65257;52.104;4.268;2024-02-16T05:58:38;7.57;;;4.35;;
76423;SDS011;65257;52.104;4.268;2024-02-16T06:01:04;6.72;;;4.68;;
76423;SDS011;65257;52.104;4.268;2024-02-16T06:03:30;8.95;;;4.40;;
76423;SDS011;65257;52.104;4.268;2024-02-16T06:05:56;8.27;;;4.65;;
76423;SDS011;65257;52.104;4.268;2024-02-16T06:08:22;8.88;;;4.78;;
76423;SDS011;65257;52.104;4.268;2024-02-16T06:10:48;6.50;;;4.78;;
76423;SDS011;65257;52.104;4.268;2024-02-16T06:13:19;7.72;;;4.38;;
76423;SDS011;65257;52.104;4.268;2024-02-16T06:15:47;9.18;;;5.18;;
76423;SDS011;65257;52.104;4.268;2024-02-16T06:18:13;9.02;;;4.40;;
76423;SDS011;65257;52.104;4.268;2024-02-16T06:20:38;8.20;;;4.97;;
76423;SDS011;65257;52.104;4.268;2024-02-16T06:23:07;6.95;;;3.88;;
76423;SDS011;65257;52.104;4.268;2024-02-16T06:25:33;8.50;;;5.32;;
76423;SDS011;65257;52.104;4.268;2024-02-16T06:28:02;9.77;;;5.30;;
76423;SDS011;65257;52.104;4.268;2024-02-16T06:30:30;8.52;;;4.57;;
76423;SDS011;65257;52.104;4.268;2024-02-16T06:32:55;8.27;;;4.50;;
76423;SDS011;65257;52.104;4.268;2024-02-16T06:35:21;9.23;;;4.88;;
76423;SDS011;65257;52.104;4.268;2024-02-16T06:37:46;8.65;;;4.15;;
76423;SDS011;65257;52.104;4.268;2024-02-16T06:40:11;10.10;;;4.72;;
76423;SDS011;65257;52.104;4.268;2024-02-16T06:42:38;10.20;;;4.65;;
76423;SDS011;65257;52.104;4.268;2024-02-16T06:45:07;9.48;;;6.00;;
76423;SDS011;65257;52.104;4.268;2024-02-16T06:47:36;6.93;;;4.47;;
76423;SDS011;65257;52.104;4.268;2024-02-16T06:50:01;11.60;;;5.38;;
76423;SDS011;65257;52.104;4.268;2024-02-16T06:52:27;10.57;;;5.00;;
76423;SDS011;65257;52.104;4.268;2024-02-16T06:54:53;7.55;;;4.40;;
76423;SDS011;65257;52.104;4.268;2024-02-16T06:57:25;10.82;;;4.80;;
76423;SDS011;65257;52.104;4.268;2024-02-16T06:59:54;11.30;;;5.15;;
76423;SDS011;65257;52.104;4.268;2024-02-16T07:02:25;9.30;;;5.05;;
76423;SDS011;65257;52.104;4.268;2024-02-16T07:04:50;9.85;;;4.55;;
76423;SDS011;65257;52.104;4.268;2024-02-16T07:07:16;7.40;;;4.53;;
76423;SDS011;65257;52.104;4.268;2024-02-16T07:09:41;6.68;;;4.43;;
76423;SDS011;65257;52.104;4.268;2024-02-16T07:12:07;7.43;;;4.32;;
76423;SDS011;65257;52.104;4.268;2024-02-16T07:14:37;10.73;;;4.65;;
76423;SDS011;65257;52.104;4.268;2024-02-16T07:17:02;7.00;;;4.82;;
76423;SDS011;65257;52.104;4.268;2024-02-16T07:19:28;10.38;;;5.32;;
76423;SDS011;65257;52.104;4.268;2024-02-16T07:21:59;8.32;;;5.55;;
76423;SDS011;65257;52.104;4.268;2024-02-16T07:24:25;11.25;;;5.10;;
76423;SDS011;65257;52.104;4.268;2024-02-16T07:29:18;7.38;;;4.72;;
76423;SDS011;65257;52.104;4.268;2024-02-16T07:31:43;10.68;;;5.15;;
76423;SDS011;65257;52.104;4.268;2024-02-16T07:34:15;7.43;;;4.68;;
76423;SDS011;65257;52.104;4.268;2024-02-16T07:36:40;7.43;;;4.75;;
76423;SDS011;65257;52.104;4.268;2024-02-16T07:39:05;9.73;;;4.65;;
76423;SDS011;65257;52.104;4.268;2024-02-16T07:41:31;14.00;;;7.28;;
76423;SDS011;65257;52.104;4.268;2024-02-16T07:43:56;10.35;;;5.93;;
76423;SDS011;65257;52.104;4.268;2024-02-16T07:46:22;10.18;;;5.05;;
76423;SDS011;65257;52.104;4.268;2024-02-16T07:48:50;8.82;;;4.57;;
76423;SDS011;65257;52.104;4.268;2024-02-16T07:51:15;14.48;;;5.50;;
76423;SDS011;65257;52.104;4.268;2024-02-16T07:53:41;15.93;;;6.07;;
76423;SDS011;65257;52.104;4.268;2024-02-16T07:56:09;10.95;;;5.13;;
76423;SDS011;65257;52.104;4.268;2024-02-16T07:58:40;12.30;;;5.43;;
76423;SDS011;65257;52.104;4.268;2024-02-16T08:01:08;9.52;;;5.10;;
76423;SDS011;65257;52.104;4.268;2024-02-16T08:06:04;8.95;;;5.07;;
76423;SDS011;65257;52.104;4.268;2024-02-16T08:08:30;8.77;;;5.10;;
76423;SDS011;65257;52.104;4.268;2024-02-16T08:10:58;10.23;;;5.38;;
76423;SDS011;65257;52.104;4.268;2024-02-16T08:13:24;12.05;;;5.15;;
76423;SDS011;65257;52.104;4.268;2024-02-16T08:15:49;13.27;;;4.90;;
76423;SDS011;65257;52.104;4.268;2024-02-16T08:20:45;13.80;;;6.15;;
76423;SDS011;65257;52.104;4.268;2024-02-16T08:23:10;17.95;;;6.28;;
76423;SDS011;65257;52.104;4.268;2024-02-16T08:25:39;15.95;;;5.60;;
76423;SDS011;65257;52.104;4.268;2024-02-16T08:28:04;12.60;;;5.10;;
76423;SDS011;65257;52.104;4.268;2024-02-16T08:30:33;14.02;;;5.28;;
76423;SDS011;65257;52.104;4.268;2024-02-16T08:32:58;13.43;;;5.60;;
76423;SDS011;65257;52.104;4.268;2024-02-16T08:35:25;11.27;;;6.18;;
76423;SDS011;65257;52.104;4.268;2024-02-16T08:37:50;16.10;;;5.72;;
76423;SDS011;65257;52.104;4.268;2024-02-16T08:40:16;9.88;;;5.75;;
76423;SDS011;65257;52.104;4.268;2024-02-16T08:42:41;12.07;;;6.57;;
76423;SDS011;65257;52.104;4.268;2024-02-16T08:45:10;11.57;;;5.57;;
76423;SDS011;65257;52.104;4.268;2024-02-16T08:47:40;13.82;;;5.75;;
76423;SDS011;65257;52.104;4.268;2024-02-16T08:50:05;13.93;;;5.53;;
76423;SDS011;65257;52.104;4.268;2024-02-16T08:52:34;17.80;;;5.43;;
76423;SDS011;65257;52.104;4.268;2024-02-16T08:55:00;16.63;;;5.38;;
76423;SDS011;65257;52.104;4.268;2024-02-16T08:57:25;13.52;;;5.88;;
76423;SDS011;65257;52.104;4.268;2024-02-16T08:59:51;13.82;;;6.80;;
76423;SDS011;65257;52.104;4.268;2024-02-16T09:02:21;25.08;;;7.78;;
76423;SDS011;65257;52.104;4.268;2024-02-16T09:04:50;17.05;;;6.85;;
76423;SDS011;65257;52.104;4.268;2024-02-16T09:07:18;18.63;;;6.85;;
76423;SDS011;65257;52.104;4.268;2024-02-16T09:09:44;21.58;;;7.07;;
76423;SDS011;65257;52.104;4.268;2024-02-16T09:12:15;20.17;;;7.90;;
76423;SDS011;65257;52.104;4.268;2024-02-16T09:14:41;22.17;;;7.88;;
76423;SDS011;65257;52.104;4.268;2024-02-16T09:17:06;18.52;;;7.68;;
76423;SDS011;65257;52.104;4.268;2024-02-16T09:19:32;20.17;;;8.15;;
76423;SDS011;65257;52.104;4.268;2024-02-16T09:21:59;26.27;;;8.73;;
76423;SDS011;65257;52.104;4.268;2024-02-16T09:24:27;18.83;;;8.15;;
76423;SDS011;65257;52.104;4.268;2024-02-16T09:26:54;18.92;;;7.35;;
76423;SDS011;65257;52.104;4.268;2024-02-16T09:29:20;19.50;;;8.38;;
76423;SDS011;65257;52.104;4.268;2024-02-16T09:31:48;18.85;;;8.15;;
76423;SDS011;65257;52.104;4.268;2024-02-16T09:34:14;18.45;;;7.82;;
76423;SDS011;65257;52.104;4.268;2024-02-16T09:36:40;27.83;;;8.75;;
76423;SDS011;65257;52.104;4.268;2024-02-16T09:39:05;21.60;;;8.27;;
76423;SDS011;65257;52.104;4.268;2024-02-16T09:41:37;25.85;;;9.43;;
76423;SDS011;65257;52.104;4.268;2024-02-16T09:44:07;25.95;;;8.82;;
76423;SDS011;65257;52.104;4.268;2024-02-16T09:46:32;24.80;;;9.70;;
76423;SDS011;65257;52.104;4.268;2024-02-16T09:49:01;29.92;;;9.82;;
76423;SDS011;65257;52.104;4.268;2024-02-16T09:51:28;29.02;;;9.70;;
76423;SDS011;65257;52.104;4.268;2024-02-16T09:53:54;25.95;;;9.63;;
76423;SDS011;65257;52.104;4.268;2024-02-16T09:56:20;34.92;;;11.27;;
76423;SDS011;65257;52.104;4.268;2024-02-16T09:58:48;26.63;;;10.80;;
76423;SDS011;65257;52.104;4.268;2024-02-16T10:01:19;30.67;;;10.65;;
76423;SDS011;65257;52.104;4.268;2024-02-16T10:03:48;20.63;;;8.35;;
76423;SDS011;65257;52.104;4.268;2024-02-16T10:06:17;19.38;;;9.20;;
76423;SDS011;65257;52.104;4.268;2024-02-16T10:08:49;22.70;;;9.25;;
76423;SDS011;65257;52.104;4.268;2024-02-16T10:11:19;27.73;;;10.10;;
76423;SDS011;65257;52.104;4.268;2024-02-16T10:16:28;22.27;;;10.57;;
76423;SDS011;65257;52.104;4.268;2024-02-16T10:19:03;26.88;;;10.20;;
76423;SDS011;65257;52.104;4.268;2024-02-16T10:21:35;25.90;;;10.13;;
76423;SDS011;65257;52.104;4.268;2024-02-16T10:24:04;23.73;;;9.70;;
76423;SDS011;65257;52.104;4.268;2024-02-16T10:26:39;22.02;;;8.75;;
76423;SDS011;65257;52.104;4.268;2024-02-16T10:29:05;21.25;;;8.30;;
76423;SDS011;65257;52.104;4.268;2024-02-16T10:31:33;17.05;;;7.53;;
76423;SDS011;65257;52.104;4.268;2024-02-16T10:34:00;19.67;;;7.78;;
76423;SDS011;65257;52.104;4.268;2024-02-16T10:36:34;18.08;;;7.88;;
76423;SDS011;65257;52.104;4.268;2024-02-16T10:39:04;17.17;;;7.53;;
76423;SDS011;65257;52.104;4.268;2024-02-16T10:41:35;14.43;;;7.40;;
76423;SDS011;65257;52.104;4.268;2024-02-16T10:44:02;18.08;;;7.32;;
76423;SDS011;65257;52.104;4.268;2024-02-16T10:46:33;18.33;;;8.05;;
76423;SDS011;65257;52.104;4.268;2024-02-16T10:49:05;18.15;;;7.18;;
76423;SDS011;65257;52.104;4.268;2024-02-16T10:51:37;16.27;;;7.72;;
76423;SDS011;65257;52.104;4.268;2024-02-16T10:54:08;20.30;;;6.85;;
76423;SDS011;65257;52.104;4.268;2024-02-16T10:56:36;19.00;;;7.05;;
76423;SDS011;65257;52.104;4.268;2024-02-16T10:59:03;18.77;;;7.68;;
76423;SDS011;65257;52.104;4.268;2024-02-16T11:01:42;19.67;;;7.50;;
76423;SDS011;65257;52.104;4.268;2024-02-16T11:04:15;19.50;;;7.13;;
76423;SDS011;65257;52.104;4.268;2024-02-16T11:06:48;17.48;;;6.53;;
76423;SDS011;65257;52.104;4.268;2024-02-16T11:09:25;13.07;;;5.68;;
76423;SDS011;65257;52.104;4.268;2024-02-16T11:11:55;11.85;;;4.97;;
76423;SDS011;65257;52.104;4.268;2024-02-16T11:14:24;11.52;;;4.53;;
76423;SDS011;65257;52.104;4.268;2024-02-16T11:16:59;11.85;;;5.78;;
76423;SDS011;65257;52.104;4.268;2024-02-16T11:19:25;10.57;;;4.97;;
76423;SDS011;65257;52.104;4.268;2024-02-16T11:22:02;10.18;;;5.13;;
76423;SDS011;65257;52.104;4.268;2024-02-16T11:24:32;11.32;;;4.72;;
76423;SDS011;65257;52.104;4.268;2024-02-16T11:27:02;12.68;;;4.25;;
76423;SDS011;65257;52.104;4.268;2024-02-16T11:29:35;10.77;;;4.00;;
76423;SDS011;65257;52.104;4.268;2024-02-16T11:32:05;12.60;;;4.20;;
76423;SDS011;65257;52.104;4.268;2024-02-16T11:34:36;14.23;;;5.18;;
76423;SDS011;65257;52.104;4.268;2024-02-16T11:37:03;19.95;;;5.57;;
76423;SDS011;65257;52.104;4.268;2024-02-16T11:39:30;8.55;;;3.95;;
76423;SDS011;65257;52.104;4.268;2024-02-16T11:44:32;11.90;;;3.42;;
76423;SDS011;65257;52.104;4.268;2024-02-16T11:47:00;11.30;;;3.55;;
76423;SDS011;65257;52.104;4.268;2024-02-16T11:49:27;9.05;;;2.97;;
76423;SDS011;65257;52.104;4.268;2024-02-16T11:51:53;9.82;;;3.55;;
76423;SDS011;65257;52.104;4.268;2024-02-16T11:54:25;11.85;;;3.40;;
76423;SDS011;65257;52.104;4.268;2024-02-16T11:56:53;10.02;;;3.53;;
76423;SDS011;65257;52.104;4.268;2024-02-16T11:59:19;13.48;;;4.47;;
76423;SDS011;65257;52.104;4.268;2024-02-16T12:01:49;10.38;;;4.63;;
76423;SDS011;65257;52.104;4.268;2024-02-16T12:04:19;6.72;;;3.78;;
76423;SDS011;65257;52.104;4.268;2024-02-16T12:06:58;15.63;;;4.07;;
76423;SDS011;65257;52.104;4.268;2024-02-16T12:09:24;13.85;;;4.43;;
76423;SDS011;65257;52.104;4.268;2024-02-16T12:11:50;7.45;;;3.78;;
76423;SDS011;65257;52.104;4.268;2024-02-16T12:14:18;9.35;;;3.88;;
76423;SDS011;65257;52.104;4.268;2024-02-16T12:16:56;14.45;;;4.20;;
76423;SDS011;65257;52.104;4.268;2024-02-16T12:19:22;10.57;;;4.07;;
76423;SDS011;65257;52.104;4.268;2024-02-16T12:21:51;11.65;;;4.53;;
76423;SDS011;65257;52.104;4.268;2024-02-16T12:24:19;12.30;;;4.47;;
76423;SDS011;65257;52.104;4.268;2024-02-16T12:26:47;11.38;;;4.00;;
76423;SDS011;65257;52.104;4.268;2024-02-16T12:29:13;11.20;;;3.85;;
76423;SDS011;65257;52.104;4.268;2024-02-16T12:31:39;13.43;;;4.40;;
76423;SDS011;65257;52.104;4.268;2024-02-16T12:34:07;11.98;;;3.70;;
76423;SDS011;65257;52.104;4.268;2024-02-16T12:36:36;11.70;;;3.97;;
76423;SDS011;65257;52.104;4.268;2024-02-16T12:39:05;11.15;;;3.78;;
76423;SDS011;65257;52.104;4.268;2024-02-16T12:41:34;12.40;;;4.80;;
76423;SDS011;65257;52.104;4.268;2024-02-16T12:44:01;8.93;;;3.20;;
76423;SDS011;65257;52.104;4.268;2024-02-16T12:46:27;9.20;;;3.35;;
76423;SDS011;65257;52.104;4.268;2024-02-16T12:48:55;13.93;;;3.90;;
76423;SDS011;65257;52.104;4.268;2024-02-16T12:51:24;13.27;;;4.28;;
76423;SDS011;65257;52.104;4.268;2024-02-16T12:53:50;13.18;;;3.45;;
76423;SDS011;65257;52.104;4.268;2024-02-16T12:56:18;12.23;;;3.78;;
76423;SDS011;65257;52.104;4.268;2024-02-16T12:58:43;10.45;;;3.80;;
76423;SDS011;65257;52.104;4.268;2024-02-16T13:01:13;12.48;;;3.72;;
76423;SDS011;65257;52.104;4.268;2024-02-16T13:03:39;9.60;;;3.47;;
76423;SDS011;65257;52.104;4.268;2024-02-16T13:06:06;12.60;;;3.97;;
76423;SDS011;65257;52.104;4.268;2024-02-16T13:08:32;10.02;;;4.25;;
76423;SDS011;65257;52.104;4.268;2024-02-16T13:10:59;9.73;;;3.95;;
76423;SDS011;65257;52.104;4.268;2024-02-16T13:13:25;8.98;;;3.70;;
76423;SDS011;65257;52.104;4.268;2024-02-16T13:15:50;6.90;;;3.60;;
76423;SDS011;65257;52.104;4.268;2024-02-16T13:18:16;11.93;;;3.80;;
76423;SDS011;65257;52.104;4.268;2024-02-16T13:20:43;8.30;;;3.67;;
76423;SDS011;65257;52.104;4.268;2024-02-16T13:23:09;9.80;;;4.22;;
76423;SDS011;65257;52.104;4.268;2024-02-16T13:25:34;10.18;;;3.50;;
76423;SDS011;65257;52.104;4.268;2024-02-16T13:28:00;9.55;;;3.70;;
76423;SDS011;65257;52.104;4.268;2024-02-16T13:30:29;10.35;;;3.28;;
76423;SDS011;65257;52.104;4.268;2024-02-16T13:32:54;7.28;;;3.47;;
76423;SDS011;65257;52.104;4.268;2024-02-16T13:35:24;8.05;;;3.55;;
76423;SDS011;65257;52.104;4.268;2024-02-16T13:37:52;19.00;;;4.28;;
76423;SDS011;65257;52.104;4.268;2024-02-16T13:40:17;7.05;;;3.33;;
76423;SDS011;65257;52.104;4.268;2024-02-16T13:42:43;13.15;;;4.07;;
76423;SDS011;65257;52.104;4.268;2024-02-16T13:45:10;8.98;;;3.47;;
76423;SDS011;65257;52.104;4.268;2024-02-16T13:47:44;7.68;;;3.25;;
76423;SDS011;65257;52.104;4.268;2024-02-16T13:50:10;10.65;;;3.95;;
76423;SDS011;65257;52.104;4.268;2024-02-16T13:52:39;10.57;;;4.10;;
76423;SDS011;65257;52.104;4.268;2024-02-16T13:55:07;10.15;;;3.70;;
76423;SDS011;65257;52.104;4.268;2024-02-16T13:57:33;7.55;;;3.10;;
76423;SDS011;65257;52.104;4.268;2024-02-16T13:59:58;8.55;;;2.95;;
76423;SDS011;65257;52.104;4.268;2024-02-16T14:02:27;10.48;;;3.22;;
76423;SDS011;65257;52.104;4.268;2024-02-16T14:04:52;11.73;;;3.97;;
76423;SDS011;65257;52.104;4.268;2024-02-16T14:07:18;11.95;;;3.50;;
76423;SDS011;65257;52.104;4.268;2024-02-16T14:09:43;10.88;;;3.70;;
76423;SDS011;65257;52.104;4.268;2024-02-16T14:12:09;9.43;;;3.58;;
76423;SDS011;65257;52.104;4.268;2024-02-16T14:14:34;12.52;;;3.72;;
76423;SDS011;65257;52.104;4.268;2024-02-16T14:17:03;13.98;;;3.90;;
76423;SDS011;65257;52.104;4.268;2024-02-16T14:19:29;8.80;;;3.22;;
76423;SDS011;65257;52.104;4.268;2024-02-16T14:21:55;9.13;;;3.38;;
76423;SDS011;65257;52.104;4.268;2024-02-16T14:24:21;13.60;;;3.33;;
76423;SDS011;65257;52.104;4.268;2024-02-16T14:26:46;8.13;;;3.30;;
76423;SDS011;65257;52.104;4.268;2024-02-16T14:29:12;8.25;;;2.90;;
76423;SDS011;65257;52.104;4.268;2024-02-16T14:31:46;8.68;;;3.33;;
76423;SDS011;65257;52.104;4.268;2024-02-16T14:34:14;11.82;;;3.70;;
76423;SDS011;65257;52.104;4.268;2024-02-16T14:36:42;10.57;;;3.40;;
76423;SDS011;65257;52.104;4.268;2024-02-16T14:39:10;8.38;;;2.88;;
76423;SDS011;65257;52.104;4.268;2024-02-16T14:41:36;11.52;;;3.42;;
76423;SDS011;65257;52.104;4.268;2024-02-16T14:44:02;10.98;;;3.08;;
76423;SDS011;65257;52.104;4.268;2024-02-16T14:46:28;6.60;;;2.97;;
76423;SDS011;65257;52.104;4.268;2024-02-16T14:48:53;10.88;;;3.03;;
76423;SDS011;65257;52.104;4.268;2024-02-16T14:51:19;11.30;;;3.35;;
76423;SDS011;65257;52.104;4.268;2024-02-16T14:53:48;9.98;;;2.85;;